createdAt,value
2023-11-21T00:00:19.405Z,101306.00
2023-11-21T00:02:48.545Z,101307.00
2023-11-21T00:05:17.661Z,101297.00
2023-11-21T00:07:47.860Z,101303.00
2023-11-21T00:10:17.296Z,101306.00
2023-11-21T00:12:49.643Z,101310.00
2023-11-21T00:15:19.865Z,101313.00
2023-11-21T00:17:48.909Z,101311.00
2023-11-21T00:20:17.847Z,101310.00
2023-11-21T00:22:48.969Z,101320.00
2023-11-21T00:25:18.831Z,101319.00
2023-11-21T00:27:47.833Z,101312.00
2023-11-21T00:30:17.588Z,101322.00
2023-11-21T00:32:46.498Z,101314.00
2023-11-21T00:35:15.372Z,101321.00
2023-11-21T00:37:44.176Z,101318.00
2023-11-21T00:40:16.679Z,101319.00
2023-11-21T00:42:47.586Z,101317.00
2023-11-21T00:45:16.852Z,101338.00
2023-11-21T00:47:45.833Z,101332.00
2023-11-21T00:50:14.788Z,101336.00
2023-11-21T00:52:43.736Z,101339.00
2023-11-21T00:55:14.210Z,101334.00
2023-11-21T00:57:43.888Z,101340.00
2023-11-21T01:00:15.860Z,101336.00
2023-11-21T01:02:45.523Z,101337.00
2023-11-21T01:05:14.344Z,101332.00
2023-11-21T01:07:43.148Z,101340.00
2023-11-21T01:10:13.881Z,101344.00
2023-11-21T01:12:42.842Z,101347.00
2023-11-21T01:15:13.445Z,101347.00
2023-11-21T01:17:42.588Z,101348.00
2023-11-21T01:20:14.786Z,101360.00
2023-11-21T01:22:44.649Z,101352.00
2023-11-21T01:25:15.674Z,101357.00
2023-11-21T01:27:46.162Z,101351.00
2023-11-21T01:30:15.794Z,101360.00
2023-11-21T01:32:45.115Z,101363.00
2023-11-21T01:35:14.595Z,101371.00
2023-11-21T01:37:43.651Z,101366.00
2023-11-21T01:40:15.614Z,101365.00
2023-11-21T01:42:46.250Z,101358.00
2023-11-21T01:45:15.987Z,101355.00
2023-11-21T01:47:47.148Z,101349.00
2023-11-21T01:50:19.237Z,101348.00
2023-11-21T01:52:49.553Z,101343.00
2023-11-21T01:55:27.668Z,101342.00
2023-11-21T01:57:59.004Z,101351.00
2023-11-21T02:00:30.019Z,101359.00
2023-11-21T02:03:00.807Z,101361.00
2023-11-21T02:05:30.852Z,101359.00
2023-11-21T02:08:02.218Z,101351.00
2023-11-21T02:10:33.533Z,101356.00
2023-11-21T02:13:04.285Z,101371.00
2023-11-21T02:15:34.491Z,101375.00
2023-11-21T02:18:04.575Z,101372.00
2023-11-21T02:20:36.198Z,101378.00
2023-11-21T02:23:08.509Z,101380.00
2023-11-21T02:25:38.697Z,101386.00
2023-11-21T02:28:08.559Z,101377.00
2023-11-21T02:30:39.006Z,101373.00
2023-11-21T02:33:08.688Z,101379.00
2023-11-21T02:35:37.541Z,101368.00
2023-11-21T02:38:07.733Z,101385.00
2023-11-21T02:40:36.668Z,101383.00
2023-11-21T02:43:07.149Z,101378.00
2023-11-21T02:45:36.342Z,101388.00
2023-11-21T02:48:05.920Z,101395.00
2023-11-21T02:50:36.444Z,101391.00
2023-11-21T02:53:07.039Z,101372.00
2023-11-21T02:55:37.548Z,101369.00
2023-11-21T02:58:07.472Z,101377.00
2023-11-21T03:00:36.981Z,101379.00
2023-11-21T03:03:05.855Z,101386.00
2023-11-21T03:05:36.640Z,101386.00
2023-11-21T03:08:06.519Z,101393.00
2023-11-21T03:10:37.019Z,101399.00
2023-11-21T03:13:05.836Z,101397.00
2023-11-21T03:15:36.332Z,101392.00
2023-11-21T03:18:06.636Z,101388.00
2023-11-21T03:20:36.041Z,101388.00
2023-11-21T03:23:06.217Z,101387.00
2023-11-21T03:25:36.313Z,101388.00
2023-11-21T03:28:05.333Z,101400.00
2023-11-21T03:30:34.095Z,101399.00
2023-11-21T03:33:02.905Z,101398.00
2023-11-21T03:35:32.207Z,101406.00
2023-11-21T03:38:00.971Z,101401.00
2023-11-21T03:40:32.349Z,101403.00
2023-11-21T03:43:02.531Z,101399.00
2023-11-21T03:45:31.422Z,101399.00
2023-11-21T03:48:02.073Z,101400.00
2023-11-21T03:50:32.323Z,101408.00
2023-11-21T03:53:01.794Z,101405.00
2023-11-21T03:55:32.561Z,101406.00
2023-11-21T03:58:02.916Z,101408.00
2023-11-21T04:00:31.773Z,101406.00
2023-11-21T04:03:00.848Z,101413.00
2023-11-21T04:05:30.129Z,101409.00
2023-11-21T04:07:59.297Z,101406.00
2023-11-21T04:10:28.099Z,101413.00
2023-11-21T04:12:56.958Z,101410.00
2023-11-21T04:15:27.396Z,101438.00
2023-11-21T04:17:57.982Z,101427.00
2023-11-21T04:20:27.137Z,101428.00
2023-11-21T04:22:55.961Z,101446.00
2023-11-21T04:25:25.452Z,101460.00
2023-11-21T04:27:55.343Z,101453.00
2023-11-21T04:30:24.217Z,101459.00
2023-11-21T04:32:54.422Z,101455.00
2023-11-21T04:35:23.269Z,101454.00
2023-11-21T04:37:52.585Z,101462.00
2023-11-21T04:40:22.227Z,101456.00
2023-11-21T04:42:51.153Z,101456.00
2023-11-21T04:45:20.000Z,101456.00
2023-11-21T04:47:48.835Z,101457.00
2023-11-21T04:50:20.124Z,101454.00
2023-11-21T04:52:49.097Z,101451.00
2023-11-21T04:55:17.945Z,101457.00
2023-11-21T04:57:51.239Z,101451.00
2023-11-21T05:00:21.461Z,101458.00
2023-11-21T05:02:51.040Z,101451.00
2023-11-21T05:05:21.490Z,101455.00
2023-11-21T05:07:50.465Z,101461.00
2023-11-21T05:10:19.645Z,101472.00
2023-11-21T05:12:48.481Z,101472.00
2023-11-21T05:15:19.191Z,101479.00
2023-11-21T05:17:51.123Z,101484.00
2023-11-21T05:20:22.708Z,101487.00
2023-11-21T05:22:52.124Z,101494.00
2023-11-21T05:25:21.285Z,101499.00
2023-11-21T05:27:50.572Z,101501.00
2023-11-21T05:30:19.571Z,101507.00
2023-11-21T05:32:51.242Z,101498.00
2023-11-21T05:35:22.491Z,101506.00
2023-11-21T05:37:51.409Z,101510.00
2023-11-21T05:40:20.280Z,101514.00
2023-11-21T05:42:49.301Z,101517.00
2023-11-21T05:45:20.105Z,101534.00
2023-11-21T05:47:49.391Z,101535.00
2023-11-21T05:50:20.843Z,101535.00
2023-11-21T05:52:50.677Z,101534.00
2023-11-21T05:55:22.334Z,101542.00
2023-11-21T05:57:51.241Z,101528.00
2023-11-21T06:00:22.747Z,101544.00
2023-11-21T06:02:54.645Z,101537.00
2023-11-21T06:05:27.605Z,101544.00
2023-11-21T06:08:00.195Z,101547.00
2023-11-21T06:10:31.420Z,101546.00
2023-11-21T06:13:03.677Z,101552.00
2023-11-21T06:15:33.342Z,101553.00
2023-11-21T06:18:02.150Z,101564.00
2023-11-21T06:20:32.359Z,101566.00
2023-11-21T06:23:04.769Z,101558.00
2023-11-21T06:25:37.424Z,101558.00
2023-11-21T06:28:07.483Z,101565.00
2023-11-21T06:30:36.459Z,101573.00
2023-11-21T06:33:05.409Z,101572.00
2023-11-21T06:35:36.108Z,101569.00
2023-11-21T06:38:05.068Z,101584.00
2023-11-21T06:40:35.009Z,101588.00
2023-11-21T06:43:03.942Z,101584.00
2023-11-21T06:45:32.720Z,101591.00
2023-11-21T06:48:01.622Z,101593.00
2023-11-21T06:50:30.472Z,101591.00
2023-11-21T06:53:00.840Z,101601.00
2023-11-21T06:55:29.599Z,101600.00
2023-11-21T06:57:59.263Z,101599.00
2023-11-21T07:00:29.098Z,101598.00
2023-11-21T07:02:58.476Z,101612.00
2023-11-21T07:05:27.262Z,101612.00
2023-11-21T07:07:56.350Z,101625.00
2023-11-21T07:10:26.698Z,101618.00
2023-11-21T07:12:55.579Z,101621.00
2023-11-21T07:15:24.345Z,101618.00
2023-11-21T07:17:55.221Z,101621.00
2023-11-21T07:20:24.674Z,101624.00
2023-11-21T07:22:53.578Z,101627.00
2023-11-21T07:25:23.438Z,101629.00
2023-11-21T07:27:54.170Z,101622.00
2023-11-21T07:30:23.705Z,101625.00
2023-11-21T07:32:52.508Z,101638.00
2023-11-21T07:35:21.328Z,101634.00
2023-11-21T07:37:50.188Z,101637.00
2023-11-21T07:40:19.256Z,101631.00
2023-11-21T07:42:48.082Z,101628.00
2023-11-21T07:45:19.149Z,101635.00
2023-11-21T07:47:48.033Z,101640.00
2023-11-21T07:50:17.120Z,101644.00
2023-11-21T07:52:46.016Z,101642.00
2023-11-21T07:55:15.338Z,101643.00
2023-11-21T07:57:44.082Z,101657.00
2023-11-21T08:00:16.490Z,101658.00
2023-11-21T08:02:47.188Z,101649.00
2023-11-21T08:05:24.780Z,101663.00
2023-11-21T08:07:57.290Z,101658.00
2023-11-21T08:10:26.335Z,101644.00
2023-11-21T08:12:55.125Z,101649.00
2023-11-21T08:15:23.936Z,101652.00
2023-11-21T08:17:54.248Z,101654.00
2023-11-21T08:20:23.922Z,101653.00
2023-11-21T08:22:53.962Z,101649.00
2023-11-21T08:25:23.529Z,101639.00
2023-11-21T08:28:07.634Z,101641.00
2023-11-21T08:30:36.510Z,101632.00
2023-11-21T08:33:06.732Z,101636.00
2023-11-21T08:35:35.753Z,101642.00
2023-11-21T08:38:04.872Z,101646.00
2023-11-21T08:40:33.955Z,101646.00
2023-11-21T08:43:05.816Z,101642.00
2023-11-21T08:45:41.814Z,101645.00
2023-11-21T08:48:41.397Z,101645.00
2023-11-21T08:51:13.832Z,101650.00
2023-11-21T08:53:42.868Z,101648.00
2023-11-21T08:56:16.300Z,101649.00
2023-11-21T08:58:45.285Z,101644.00
2023-11-21T09:01:14.683Z,101643.00
2023-11-21T09:03:45.065Z,101643.00
2023-11-21T09:06:15.418Z,101648.00
2023-11-21T09:08:44.726Z,101652.00
2023-11-21T09:11:13.574Z,101648.00
2023-11-21T09:13:42.490Z,101652.00
2023-11-21T09:16:12.063Z,101644.00
2023-11-21T09:18:40.955Z,101650.00
2023-11-21T09:21:11.315Z,101652.00
2023-11-21T09:23:40.168Z,101658.00
2023-11-21T09:26:09.160Z,101652.00
2023-11-21T09:28:38.912Z,101649.00
2023-11-21T09:31:10.099Z,101654.00
2023-11-21T09:33:39.353Z,101656.00
2023-11-21T09:36:15.960Z,101654.00
2023-11-21T09:38:45.057Z,101658.00
2023-11-21T09:41:25.875Z,101656.00
2023-11-21T09:44:02.060Z,101658.00
2023-11-21T09:46:32.046Z,101658.00
2023-11-21T09:49:07.098Z,101672.00
2023-11-21T09:51:39.901Z,101666.00
2023-11-21T09:54:11.298Z,101662.00
2023-11-21T09:56:40.556Z,101674.00
2023-11-21T09:59:11.342Z,101667.00
2023-11-21T10:01:43.421Z,101668.00
2023-11-21T10:04:13.875Z,101672.00
2023-11-21T10:06:44.545Z,101671.00
2023-11-21T10:09:14.586Z,101675.00
2023-11-21T10:11:44.800Z,101670.00
2023-11-21T10:14:15.226Z,101671.00
2023-11-21T10:16:48.409Z,101661.00
2023-11-21T10:19:18.625Z,101673.00
2023-11-21T10:21:48.797Z,101672.00
2023-11-21T10:24:18.127Z,101669.00
2023-11-21T10:26:53.486Z,101667.00
2023-11-21T10:29:23.835Z,101672.00
2023-11-21T10:31:56.175Z,101680.00
2023-11-21T10:34:25.081Z,101670.00
2023-11-21T10:36:59.089Z,101683.00
2023-11-21T10:39:32.140Z,101682.00
2023-11-21T10:42:02.120Z,101686.00
2023-11-21T10:44:31.018Z,101679.00
2023-11-21T10:47:02.208Z,101675.00
2023-11-21T10:49:31.252Z,101683.00
2023-11-21T10:52:02.485Z,101680.00
2023-11-21T10:54:31.342Z,101682.00
2023-11-21T10:57:02.968Z,101685.00
2023-11-21T10:59:34.227Z,101690.00
2023-11-21T11:02:10.143Z,101694.00
2023-11-21T11:04:40.079Z,101700.00
2023-11-21T11:07:15.563Z,101690.00
2023-11-21T11:09:45.635Z,101692.00
2023-11-21T11:12:18.581Z,101704.00
2023-11-21T11:14:49.020Z,101696.00
2023-11-21T11:17:20.902Z,101700.00
2023-11-21T11:19:50.844Z,101697.00
2023-11-21T11:22:42.195Z,101697.00
2023-11-21T11:25:50.084Z,101700.00
2023-11-21T11:28:24.774Z,101694.00
2023-11-21T11:31:09.460Z,101689.00
2023-11-21T11:33:47.693Z,101697.00
2023-11-21T11:36:27.927Z,101693.00
2023-11-21T11:38:58.292Z,101693.00
2023-11-21T11:41:29.048Z,101694.00
2023-11-21T11:43:58.116Z,101691.00
2023-11-21T11:46:47.501Z,101688.00
2023-11-21T11:49:26.958Z,101684.00
2023-11-21T11:52:36.413Z,101686.00
2023-11-21T11:55:11.147Z,101694.00
2023-11-21T11:57:41.292Z,101695.00
2023-11-21T12:00:18.296Z,101709.00
2023-11-21T12:02:49.360Z,101698.00
2023-11-21T12:05:20.898Z,101697.00
2023-11-21T12:07:54.619Z,101696.00
2023-11-21T12:10:27.893Z,101699.00
2023-11-21T12:12:59.214Z,101695.00
2023-11-21T12:15:30.472Z,101705.00
2023-11-21T12:18:00.585Z,101716.00
2023-11-21T12:20:30.825Z,101715.00
2023-11-21T12:23:02.190Z,101706.00
2023-11-21T12:25:35.317Z,101716.00
2023-11-21T12:28:05.342Z,101713.00
2023-11-21T12:30:39.326Z,101729.00
2023-11-21T12:33:11.202Z,101728.00
2023-11-21T12:35:41.285Z,101727.00
2023-11-21T12:38:11.407Z,101730.00
2023-11-21T12:40:41.659Z,101735.00
2023-11-21T12:43:10.932Z,101729.00
2023-11-21T12:45:40.052Z,101732.00
2023-11-21T12:48:10.298Z,101733.00
2023-11-21T12:50:41.121Z,101748.00
2023-11-21T12:53:14.567Z,101745.00
2023-11-21T12:55:51.569Z,101742.00
2023-11-21T12:58:24.268Z,101744.00
2023-11-21T13:00:55.243Z,101736.00
2023-11-21T13:03:27.218Z,101737.00
2023-11-21T13:05:58.268Z,101748.00
2023-11-21T13:08:31.381Z,101739.00
2023-11-21T13:11:03.763Z,101742.00
2023-11-21T13:13:32.993Z,101743.00
2023-11-21T13:16:05.928Z,101749.00
2023-11-21T13:18:35.513Z,101755.00
2023-11-21T13:21:11.593Z,101750.00
2023-11-21T13:23:41.817Z,101747.00
2023-11-21T13:26:13.747Z,101751.00
2023-11-21T13:28:47.506Z,101742.00
2023-11-21T13:31:27.126Z,101745.00
2023-11-21T13:34:06.057Z,101749.00
2023-11-21T13:36:36.849Z,101748.00
2023-11-21T13:39:09.457Z,101742.00
2023-11-21T13:41:40.333Z,101753.00
2023-11-21T13:44:17.816Z,101753.00
2023-11-21T13:46:47.661Z,101764.00
2023-11-21T13:49:16.947Z,101760.00
2023-11-21T13:51:49.420Z,101756.00
2023-11-21T13:54:19.213Z,101762.00
2023-11-21T13:56:51.956Z,101764.00
2023-11-21T13:59:24.483Z,101758.00
2023-11-21T14:01:59.216Z,101768.00
2023-11-21T14:04:48.358Z,101769.00
2023-11-21T14:07:27.888Z,101767.00
2023-11-21T14:09:57.304Z,101779.00
2023-11-21T14:12:27.444Z,101773.00
2023-11-21T14:14:56.465Z,101761.00
2023-11-21T14:17:25.678Z,101767.00
2023-11-21T14:19:57.061Z,101764.00
2023-11-21T14:22:27.217Z,101771.00
2023-11-21T14:24:59.955Z,101769.00
2023-11-21T14:27:30.363Z,101768.00
2023-11-21T14:30:07.800Z,101768.00
2023-11-21T14:32:39.532Z,101773.00
2023-11-21T14:35:10.311Z,101769.00
2023-11-21T14:37:39.161Z,101782.00
2023-11-21T14:40:17.056Z,101768.00
2023-11-21T14:42:49.183Z,101775.00
2023-11-21T14:45:21.500Z,101779.00
2023-11-21T14:47:58.862Z,101774.00
2023-11-21T14:50:54.197Z,101769.00
2023-11-21T14:53:46.935Z,101780.00
2023-11-21T14:56:26.604Z,101784.00
2023-11-21T14:58:58.072Z,101784.00
2023-11-21T15:01:44.167Z,101788.00
2023-11-21T15:04:25.632Z,101779.00
2023-11-21T15:06:57.003Z,101779.00
2023-11-21T15:09:36.156Z,101781.00
2023-11-21T15:12:15.238Z,101792.00
2023-11-21T15:14:50.359Z,101792.00
2023-11-21T15:17:24.228Z,101778.00
2023-11-21T15:19:53.576Z,101794.00
2023-11-21T15:22:23.770Z,101794.00
2023-11-21T15:24:55.096Z,101792.00
2023-11-21T15:27:25.630Z,101795.00
2023-11-21T15:29:56.056Z,101809.00
2023-11-21T15:32:25.346Z,101807.00
2023-11-21T15:34:55.643Z,101803.00
2023-11-21T15:37:27.450Z,101792.00
2023-11-21T15:39:56.483Z,101793.00
2023-11-21T15:42:25.399Z,101823.00
2023-11-21T15:44:55.651Z,101822.00
2023-11-21T15:47:24.520Z,101826.00
2023-11-21T15:49:53.885Z,101806.00
2023-11-21T15:52:22.783Z,101806.00
2023-11-21T15:54:51.604Z,101818.00
2023-11-21T15:57:23.124Z,101813.00
2023-11-21T15:59:52.082Z,101815.00
2023-11-21T16:02:22.503Z,101823.00
2023-11-21T16:04:51.413Z,101826.00
2023-11-21T16:07:20.392Z,101828.00
2023-11-21T16:09:49.306Z,101813.00
2023-11-21T16:12:18.365Z,101823.00
2023-11-21T16:14:49.095Z,101818.00
2023-11-21T16:17:18.834Z,101823.00
2023-11-21T16:19:49.831Z,101818.00
2023-11-21T16:22:18.889Z,101819.00
2023-11-21T16:24:47.969Z,101824.00
2023-11-21T16:27:19.106Z,101823.00
2023-11-21T16:29:49.098Z,101828.00
2023-11-21T16:32:18.871Z,101821.00
2023-11-21T16:34:50.554Z,101817.00
2023-11-21T16:37:19.382Z,101823.00
2023-11-21T16:39:48.956Z,101821.00
2023-11-21T16:42:19.440Z,101813.00
2023-11-21T16:44:51.591Z,101819.00
2023-11-21T16:47:20.398Z,101814.00
2023-11-21T16:49:50.757Z,101815.00
2023-11-21T16:52:23.405Z,101817.00
2023-11-21T16:54:52.552Z,101806.00
2023-11-21T16:57:21.374Z,101806.00
2023-11-21T16:59:52.145Z,101810.00
2023-11-21T17:02:21.828Z,101812.00
2023-11-21T17:04:52.278Z,101811.00
2023-11-21T17:07:22.104Z,101808.00
2023-11-21T17:09:51.959Z,101820.00
2023-11-21T17:12:21.156Z,101834.00
2023-11-21T17:14:50.493Z,101823.00
2023-11-21T17:17:19.758Z,101828.00
2023-11-21T17:19:49.212Z,101838.00
2023-11-21T17:22:20.922Z,101841.00
2023-11-21T17:24:49.846Z,101835.00
2023-11-21T17:27:18.645Z,101834.00
2023-11-21T17:29:49.849Z,101840.00
2023-11-21T17:32:20.228Z,101839.00
2023-11-21T17:34:49.686Z,101837.00
2023-11-21T17:37:20.665Z,101842.00
2023-11-21T17:39:49.852Z,101825.00
2023-11-21T17:42:18.630Z,101836.00
2023-11-21T17:44:47.460Z,101849.00
2023-11-21T17:47:16.422Z,101844.00
2023-11-21T17:49:45.349Z,101843.00
2023-11-21T17:52:14.756Z,101838.00
2023-11-21T17:54:44.966Z,101837.00
2023-11-21T17:57:13.677Z,101847.00
2023-11-21T17:59:43.327Z,101845.00
2023-11-21T18:02:15.688Z,101847.00
2023-11-21T18:04:49.187Z,101841.00
2023-11-21T18:07:18.806Z,101841.00
2023-11-21T18:09:50.074Z,101843.00
2023-11-21T18:12:21.035Z,101849.00
2023-11-21T18:14:52.313Z,101845.00
2023-11-21T18:17:21.191Z,101843.00
2023-11-21T18:19:55.654Z,101847.00
2023-11-21T18:22:26.350Z,101846.00
2023-11-21T18:24:58.225Z,101857.00
2023-11-21T18:27:29.642Z,101870.00
2023-11-21T18:29:59.409Z,101863.00
2023-11-21T18:32:29.321Z,101863.00
2023-11-21T18:34:59.769Z,101863.00
2023-11-21T18:37:28.527Z,101850.00
2023-11-21T18:39:58.809Z,101850.00
2023-11-21T18:42:29.457Z,101852.00
2023-11-21T18:44:59.960Z,101858.00
2023-11-21T18:47:29.719Z,101859.00
2023-11-21T18:49:58.929Z,101858.00
2023-11-21T18:52:29.236Z,101863.00
2023-11-21T18:54:59.784Z,101869.00
2023-11-21T18:57:30.613Z,101859.00
2023-11-21T18:59:59.514Z,101864.00
2023-11-21T19:02:28.475Z,101864.00
2023-11-21T19:04:57.460Z,101870.00
2023-11-21T19:07:27.502Z,101870.00
2023-11-21T19:09:56.369Z,101864.00
2023-11-21T19:12:26.640Z,101875.00
2023-11-21T19:14:55.597Z,101862.00
2023-11-21T19:17:26.099Z,101871.00
2023-11-21T19:19:55.068Z,101869.00
2023-11-21T19:22:23.993Z,101863.00
2023-11-21T19:24:52.974Z,101863.00
2023-11-21T19:27:22.256Z,101869.00
2023-11-21T19:29:52.532Z,101871.00
2023-11-21T19:32:21.389Z,101875.00
2023-11-21T19:34:50.239Z,101877.00
2023-11-21T19:37:19.078Z,101881.00
2023-11-21T19:39:49.208Z,101874.00
2023-11-21T19:42:18.541Z,101887.00
2023-11-21T19:44:47.584Z,101878.00
2023-11-21T19:47:17.905Z,101876.00
2023-11-21T19:49:46.825Z,101885.00
2023-11-21T19:52:15.744Z,101892.00
2023-11-21T19:54:44.607Z,101897.00
2023-11-21T19:57:15.629Z,101899.00
2023-11-21T19:59:46.139Z,101894.00
2023-11-21T20:02:15.068Z,101897.00
2023-11-21T20:04:46.261Z,101904.00
2023-11-21T20:07:18.932Z,101914.00
2023-11-21T20:09:47.680Z,101900.00
2023-11-21T20:12:16.483Z,101904.00
2023-11-21T20:14:47.495Z,101895.00
2023-11-21T20:17:16.494Z,101897.00
2023-11-21T20:19:47.051Z,101900.00
2023-11-21T20:22:19.603Z,101909.00
2023-11-21T20:24:49.119Z,101908.00
2023-11-21T20:27:18.691Z,101900.00
2023-11-21T20:29:47.800Z,101897.00
2023-11-21T20:32:21.552Z,101909.00
2023-11-21T20:34:55.066Z,101909.00
2023-11-21T20:37:23.893Z,101904.00
2023-11-21T20:39:52.793Z,101903.00
2023-11-21T20:42:21.625Z,101913.00
2023-11-21T20:44:50.815Z,101921.00
2023-11-21T20:47:22.026Z,101922.00
2023-11-21T20:49:52.400Z,101910.00
2023-11-21T20:52:22.958Z,101917.00
2023-11-21T20:54:51.953Z,101919.00
2023-11-21T20:57:21.067Z,101925.00
2023-11-21T20:59:50.422Z,101924.00
2023-11-21T21:02:19.804Z,101921.00
2023-11-21T21:04:48.636Z,101909.00
2023-11-21T21:07:17.427Z,101924.00
2023-11-21T21:09:48.997Z,101934.00
2023-11-21T21:12:17.970Z,101924.00
2023-11-21T21:14:46.808Z,101931.00
2023-11-21T21:17:15.654Z,101925.00
2023-11-21T21:19:44.492Z,101922.00
2023-11-21T21:22:13.228Z,101916.00
2023-11-21T21:24:42.564Z,101918.00
2023-11-21T21:27:12.813Z,101936.00
2023-11-21T21:29:42.702Z,101932.00
2023-11-21T21:32:11.507Z,101931.00
2023-11-21T21:34:40.995Z,101932.00
2023-11-21T21:37:10.707Z,101928.00
2023-11-21T21:39:39.472Z,101930.00
2023-11-21T21:42:08.562Z,101922.00
2023-11-21T21:44:39.919Z,101927.00
2023-11-21T21:47:09.039Z,101929.00
2023-11-21T21:49:38.242Z,101924.00
2023-11-21T21:52:07.634Z,101921.00
2023-11-21T21:54:39.288Z,101938.00
2023-11-21T21:57:08.589Z,101922.00
2023-11-21T21:59:39.412Z,101930.00
2023-11-21T22:02:08.519Z,101925.00
2023-11-21T22:04:43.188Z,101940.00
2023-11-21T22:07:11.901Z,101928.00
2023-11-21T22:09:40.786Z,101931.00
2023-11-21T22:12:11.324Z,101923.00
2023-11-21T22:14:41.487Z,101912.00
2023-11-21T22:17:11.252Z,101916.00
2023-11-21T22:19:40.062Z,101936.00
2023-11-21T22:22:08.841Z,101926.00
2023-11-21T22:24:40.137Z,101931.00
2023-11-21T22:27:09.401Z,101935.00
2023-11-21T22:29:38.712Z,101936.00
2023-11-21T22:32:09.291Z,101936.00
2023-11-21T22:34:39.226Z,101942.00
2023-11-21T22:37:08.034Z,101938.00
2023-11-21T22:39:36.791Z,101932.00
2023-11-21T22:42:06.469Z,101937.00
2023-11-21T22:44:35.383Z,101940.00
2023-11-21T22:47:05.456Z,101930.00
2023-11-21T22:49:35.894Z,101934.00
2023-11-21T22:52:05.228Z,101944.00
2023-11-21T22:54:34.060Z,101945.00
2023-11-21T22:57:02.881Z,101943.00
2023-11-21T22:59:31.788Z,101935.00
2023-11-21T23:02:00.658Z,101930.00
2023-11-21T23:04:29.462Z,101938.00
2023-11-21T23:06:59.626Z,101938.00
2023-11-21T23:09:28.495Z,101928.00
2023-11-21T23:11:57.168Z,101930.00
2023-11-21T23:14:28.001Z,101933.00
2023-11-21T23:16:59.156Z,101926.00
2023-11-21T23:19:28.854Z,101932.00
2023-11-21T23:21:58.935Z,101937.00
2023-11-21T23:24:27.686Z,101939.00
2023-11-21T23:26:56.387Z,101926.00
2023-11-21T23:29:25.181Z,101931.00
2023-11-21T23:31:54.029Z,101936.00
2023-11-21T23:34:22.780Z,101933.00
2023-11-21T23:36:51.550Z,101931.00
2023-11-21T23:39:21.899Z,101943.00
2023-11-21T23:41:50.659Z,101928.00
2023-11-21T23:44:20.268Z,101928.00
2023-11-21T23:46:49.112Z,101938.00
2023-11-21T23:49:17.903Z,101936.00
2023-11-21T23:51:47.258Z,101941.00
2023-11-21T23:54:16.057Z,101939.00
2023-11-21T23:56:46.175Z,101936.00
2023-11-21T23:59:15.315Z,101942.00
